createdAt,value
2018-06-04T00:00:13.763Z,17.57
2018-06-04T00:02:48.759Z,18.77
2018-06-04T00:05:23.938Z,19.87
2018-06-04T00:07:59.277Z,19.73
2018-06-04T00:10:34.374Z,19.67
2018-06-04T00:13:09.137Z,19.53
2018-06-04T00:15:44.392Z,20.73
2018-06-04T00:18:19.391Z,19.83
2018-06-04T00:20:54.440Z,21.90
2018-06-04T00:23:29.599Z,23.43
2018-06-04T00:26:04.815Z,22.87
2018-06-04T00:28:44.261Z,23.60
2018-06-04T00:31:26.349Z,23.10
2018-06-04T00:34:01.514Z,21.97
2018-06-04T00:36:36.871Z,23.20
2018-06-04T00:39:12.809Z,22.43
2018-06-04T00:41:49.379Z,22.43
2018-06-04T00:44:24.616Z,21.60
2018-06-04T00:46:59.751Z,21.63
2018-06-04T00:49:35.076Z,22.23
2018-06-04T00:52:10.227Z,23.47
2018-06-04T00:54:45.569Z,20.73
2018-06-04T00:57:20.900Z,21.50
2018-06-04T00:59:55.990Z,21.67
2018-06-04T01:02:31.334Z,22.43
2018-06-04T01:05:06.269Z,21.83
2018-06-04T01:07:41.368Z,21.37
2018-06-04T01:10:16.534Z,22.23
2018-06-04T01:12:51.446Z,21.23
2018-06-04T01:15:26.757Z,21.63
2018-06-04T01:18:01.823Z,21.73
2018-06-04T01:20:37.061Z,22.37
2018-06-04T01:23:12.406Z,21.20
2018-06-04T01:25:47.954Z,21.43
2018-06-04T01:28:23.106Z,22.80
2018-06-04T01:30:59.050Z,22.40
2018-06-04T01:33:34.044Z,22.10
2018-06-04T01:36:09.526Z,23.37
2018-06-04T01:38:44.663Z,22.13
2018-06-04T01:41:19.676Z,21.97
2018-06-04T01:43:54.836Z,24.00
2018-06-04T01:46:29.652Z,23.13
2018-06-04T01:49:04.937Z,24.37
2018-06-04T01:51:39.738Z,25.27
2018-06-04T01:54:14.878Z,25.73
2018-06-04T01:56:50.832Z,25.60
2018-06-04T01:59:25.988Z,25.17
2018-06-04T02:02:01.157Z,26.90
2018-06-04T02:04:36.349Z,25.43
2018-06-04T02:07:11.543Z,24.77
2018-06-04T02:09:46.932Z,24.77
2018-06-04T02:12:22.371Z,23.43
2018-06-04T02:14:57.364Z,22.80
2018-06-04T02:17:32.605Z,22.93
2018-06-04T02:20:08.324Z,23.13
2018-06-04T02:22:43.174Z,23.57
2018-06-04T02:25:18.403Z,24.93
2018-06-04T02:27:53.758Z,23.47
2018-06-04T02:30:29.379Z,25.30
2018-06-04T02:33:04.743Z,29.57
2018-06-04T02:35:39.767Z,27.77
2018-06-04T02:38:15.238Z,28.00
2018-06-04T02:40:50.833Z,29.17
2018-06-04T02:43:25.941Z,27.77
2018-06-04T02:46:01.230Z,29.70
2018-06-04T02:48:36.865Z,28.77
2018-06-04T02:51:12.029Z,28.47
2018-06-04T02:53:47.238Z,29.90
2018-06-04T02:56:22.712Z,29.83
2018-06-04T02:58:58.413Z,31.00
2018-06-04T03:01:33.669Z,30.47
2018-06-04T03:04:08.980Z,29.70
2018-06-04T03:06:44.635Z,32.47
2018-06-04T03:09:19.749Z,30.33
2018-06-04T03:11:55.304Z,32.30
2018-06-04T03:14:30.527Z,32.40
2018-06-04T03:17:06.095Z,32.53
2018-06-04T03:19:41.376Z,32.93
2018-06-04T03:22:16.904Z,36.07
2018-06-04T03:24:51.995Z,34.23
2018-06-04T03:27:27.200Z,35.07
2018-06-04T03:30:02.126Z,34.33
2018-06-04T03:32:37.349Z,35.73
2018-06-04T03:35:12.306Z,36.80
2018-06-04T03:37:47.412Z,35.50
2018-06-04T03:40:22.543Z,36.53
2018-06-04T03:42:57.921Z,33.23
2018-06-04T03:45:32.903Z,33.63
2018-06-04T03:48:08.337Z,34.37
2018-06-04T03:50:43.541Z,35.10
2018-06-04T03:53:18.594Z,33.70
2018-06-04T03:55:54.709Z,31.30
2018-06-04T03:58:29.940Z,31.77
2018-06-04T04:01:04.872Z,32.53
2018-06-04T04:03:40.713Z,29.33
2018-06-04T04:06:15.797Z,29.23
2018-06-04T04:08:50.832Z,32.07
2018-06-04T04:11:26.689Z,31.50
2018-06-04T04:14:01.640Z,27.33
2018-06-04T04:16:39.111Z,28.00
2018-06-04T04:19:13.846Z,24.17
2018-06-04T04:21:48.989Z,26.63
2018-06-04T04:24:24.321Z,26.70
2018-06-04T04:26:59.494Z,28.90
2018-06-04T04:29:34.704Z,26.73
2018-06-04T04:32:09.665Z,27.37
2018-06-04T04:34:44.860Z,28.17
2018-06-04T04:37:20.287Z,29.03
2018-06-04T04:39:55.381Z,27.97
2018-06-04T04:42:30.717Z,29.77
2018-06-04T04:45:05.864Z,26.90
2018-06-04T04:47:40.894Z,27.53
2018-06-04T04:50:17.068Z,29.67
2018-06-04T04:52:52.236Z,28.60
2018-06-04T04:55:27.247Z,29.10
2018-06-04T04:58:03.633Z,30.20
2018-06-04T05:00:39.218Z,30.83
2018-06-04T05:03:14.548Z,29.37
2018-06-04T05:05:49.760Z,29.67
2018-06-04T05:08:24.873Z,29.13
2018-06-04T05:11:00.880Z,28.17
2018-06-04T05:13:36.456Z,28.57
2018-06-04T05:16:11.398Z,27.70
2018-06-04T05:18:46.747Z,28.70
2018-06-04T05:21:22.422Z,29.43
2018-06-04T05:23:57.579Z,26.27
2018-06-04T05:26:32.924Z,28.57
2018-06-04T05:29:08.156Z,28.20
2018-06-04T05:31:43.036Z,28.97
2018-06-04T05:34:19.222Z,28.40
2018-06-04T05:36:54.366Z,30.07
2018-06-04T05:39:29.412Z,29.87
2018-06-04T05:42:05.089Z,30.40
2018-06-04T05:44:40.391Z,29.53
2018-06-04T05:47:14.969Z,28.77
2018-06-04T05:49:50.513Z,29.57
2018-06-04T05:52:26.474Z,30.10
2018-06-04T05:55:06.570Z,30.67
2018-06-04T05:57:44.837Z,29.30
2018-06-04T06:00:20.385Z,27.90
2018-06-04T06:02:55.894Z,26.33
2018-06-04T06:05:37.658Z,26.03
2018-06-04T06:08:13.228Z,29.03
2018-06-04T06:10:48.237Z,24.90
2018-06-04T06:13:23.857Z,24.60
2018-06-04T06:15:59.870Z,25.30
2018-06-04T06:18:34.966Z,24.13
2018-06-04T06:21:10.131Z,23.13
2018-06-04T06:23:45.829Z,24.57
2018-06-04T06:26:21.078Z,24.60
2018-06-04T06:28:56.620Z,23.87
2018-06-04T06:31:31.395Z,22.67
2018-06-04T06:34:06.385Z,23.17
2018-06-04T06:36:41.321Z,24.30
2018-06-04T06:39:17.132Z,22.83
2018-06-04T06:41:52.292Z,22.97
2018-06-04T06:44:27.555Z,24.80
2018-06-04T06:47:02.690Z,22.20
2018-06-04T06:49:37.724Z,23.83
2018-06-04T06:52:12.907Z,22.10
2018-06-04T06:54:48.315Z,25.90
2018-06-04T06:57:23.434Z,24.97
2018-06-04T06:59:58.863Z,24.13
2018-06-04T07:02:33.592Z,25.70
2018-06-04T07:05:08.822Z,23.97
2018-06-04T07:07:43.819Z,23.07
2018-06-04T07:10:19.357Z,25.40
2018-06-04T07:12:55.433Z,22.70
2018-06-04T07:15:30.853Z,23.87
2018-06-04T07:18:05.987Z,21.90
2018-06-04T07:20:41.220Z,21.40
2018-06-04T07:23:15.657Z,21.70
2018-06-04T07:25:51.426Z,22.23
2018-06-04T07:28:26.621Z,21.97
2018-06-04T07:31:01.526Z,24.50
2018-06-04T07:33:36.559Z,24.53
2018-06-04T07:36:12.697Z,26.10
2018-06-04T07:38:47.831Z,30.83
2018-06-04T07:41:22.871Z,29.57
2018-06-04T07:43:57.707Z,29.27
2018-06-04T07:46:32.971Z,26.67
2018-06-04T07:49:08.099Z,28.83
2018-06-04T07:51:43.176Z,27.00
2018-06-04T07:54:18.115Z,25.87
2018-06-04T07:56:53.144Z,26.93
2018-06-04T07:59:28.154Z,25.00
2018-06-04T08:02:02.947Z,26.50
2018-06-04T08:04:38.318Z,27.23
2018-06-04T08:07:13.187Z,25.17
2018-06-04T08:09:48.834Z,26.87
2018-06-04T08:12:23.765Z,25.80
2018-06-04T08:14:58.845Z,25.27
2018-06-04T08:17:33.831Z,27.20
2018-06-04T08:20:08.636Z,26.83
2018-06-04T08:22:43.424Z,25.80
2018-06-04T08:25:18.216Z,27.30
2018-06-04T08:27:54.242Z,25.40
2018-06-04T08:30:28.896Z,24.87
2018-06-04T08:33:03.558Z,23.30
2018-06-04T08:35:38.147Z,24.80
2018-06-04T08:38:12.867Z,23.07
2018-06-04T08:40:47.633Z,21.63
2018-06-04T08:43:22.443Z,22.57
2018-06-04T08:45:58.043Z,24.80
2018-06-04T08:48:32.875Z,23.03
2018-06-04T08:51:07.664Z,22.27
2018-06-04T08:53:42.322Z,21.07
2018-06-04T08:56:17.124Z,19.77
2018-06-04T08:58:51.849Z,20.90
2018-06-04T09:01:26.531Z,17.17
2018-06-04T09:04:01.337Z,14.13
2018-06-04T09:06:36.432Z,16.27
2018-06-04T09:09:11.569Z,15.97
2018-06-04T09:11:46.580Z,15.57
2018-06-04T09:14:21.587Z,16.77
2018-06-04T09:16:56.416Z,15.97
2018-06-04T09:19:31.378Z,14.80
2018-06-04T09:22:06.520Z,14.97
2018-06-04T09:24:41.677Z,13.63
2018-06-04T09:27:17.136Z,13.27
2018-06-04T09:29:51.915Z,12.83
2018-06-04T09:32:27.059Z,12.83
2018-06-04T09:35:02.330Z,12.43
2018-06-04T09:37:37.507Z,11.17
2018-06-04T09:40:12.356Z,14.30
2018-06-04T09:42:47.495Z,11.43
2018-06-04T09:45:22.621Z,11.27
2018-06-04T09:47:57.742Z,11.57
2018-06-04T09:50:32.862Z,12.37
2018-06-04T09:53:07.980Z,10.67
2018-06-04T09:55:43.080Z,9.80
2018-06-04T09:58:18.134Z,9.97
2018-06-04T10:00:53.691Z,10.60
2018-06-04T10:03:29.351Z,10.53
2018-06-04T10:06:05.616Z,11.63
2018-06-04T10:08:40.715Z,9.97
2018-06-04T10:11:16.192Z,10.93
2018-06-04T10:13:51.604Z,10.87
2018-06-04T10:16:27.036Z,11.33
2018-06-04T10:19:02.080Z,11.13
2018-06-04T10:21:37.345Z,11.27
2018-06-04T10:24:12.535Z,11.60
2018-06-04T10:26:47.528Z,11.37
2018-06-04T10:29:22.473Z,11.57
2018-06-04T10:31:57.580Z,10.70
2018-06-04T10:34:32.817Z,10.47
2018-06-04T10:37:07.891Z,10.43
2018-06-04T10:39:42.699Z,9.67
2018-06-04T10:42:24.211Z,10.23
2018-06-04T10:44:59.072Z,10.83
2018-06-04T10:47:34.265Z,9.80
2018-06-04T10:50:10.708Z,9.43
2018-06-04T10:52:45.772Z,9.20
2018-06-04T10:55:20.644Z,9.47
2018-06-04T10:57:55.404Z,7.93
2018-06-04T11:00:30.313Z,9.00
2018-06-04T11:03:05.238Z,9.60
2018-06-04T11:05:39.835Z,10.13
2018-06-04T11:08:14.735Z,10.37
2018-06-04T11:10:49.678Z,10.20
2018-06-04T11:13:24.269Z,10.30
2018-06-04T11:15:58.957Z,10.70
2018-06-04T11:18:33.794Z,11.33
2018-06-04T11:21:08.699Z,10.63
2018-06-04T11:23:43.486Z,9.30
2018-06-04T11:26:18.568Z,10.10
2018-06-04T11:28:53.486Z,12.23
2018-06-04T11:31:28.398Z,11.47
2018-06-04T11:34:03.272Z,9.70
2018-06-04T11:36:38.094Z,15.53
2018-06-04T11:39:12.939Z,10.57
2018-06-04T11:41:47.699Z,14.60
2018-06-04T11:44:22.611Z,11.53
2018-06-04T11:46:57.587Z,12.07
2018-06-04T11:49:32.482Z,12.50
2018-06-04T11:52:07.575Z,15.17
2018-06-04T11:54:42.351Z,15.33
2018-06-04T11:57:17.197Z,14.57
2018-06-04T11:59:52.067Z,13.43
2018-06-04T12:02:27.196Z,10.43
2018-06-04T12:05:02.257Z,15.40
2018-06-04T12:07:36.979Z,14.07
2018-06-04T12:10:11.744Z,14.40
2018-06-04T12:12:46.594Z,13.67
2018-06-04T12:15:21.629Z,13.47
2018-06-04T12:17:56.307Z,13.37
2018-06-04T12:20:32.117Z,9.77
2018-06-04T12:23:06.851Z,11.47
2018-06-04T12:25:41.523Z,10.33
2018-06-04T12:28:16.172Z,10.27
2018-06-04T12:30:51.278Z,10.50
2018-06-04T12:33:26.252Z,8.87
2018-06-04T12:36:00.996Z,6.83
2018-06-04T12:38:36.037Z,7.70
2018-06-04T12:41:11.057Z,8.40
2018-06-04T12:43:45.791Z,8.70
2018-06-04T12:46:20.672Z,7.67
2018-06-04T12:48:55.524Z,6.87
2018-06-04T12:51:30.384Z,8.33
2018-06-04T12:54:05.313Z,6.17
2018-06-04T12:56:40.256Z,6.67
2018-06-04T12:59:14.984Z,6.07
2018-06-04T13:01:50.013Z,6.53
2018-06-04T13:04:25.120Z,8.83
2018-06-04T13:06:59.720Z,7.97
2018-06-04T13:09:34.910Z,7.43
2018-06-04T13:12:09.993Z,7.43
2018-06-04T13:14:44.940Z,8.57
2018-06-04T13:17:19.618Z,6.57
2018-06-04T13:19:54.250Z,6.67
2018-06-04T13:22:29.062Z,8.27
2018-06-04T13:25:04.599Z,5.90
2018-06-04T13:27:40.410Z,9.27
2018-06-04T13:30:15.400Z,7.30
2018-06-04T13:32:50.652Z,6.93
2018-06-04T13:35:25.531Z,7.43
2018-06-04T13:38:00.442Z,6.73
2018-06-04T13:40:35.635Z,6.23
2018-06-04T13:43:10.964Z,6.27
2018-06-04T13:45:45.889Z,6.03
2018-06-04T13:48:21.278Z,5.80
2018-06-04T13:50:56.341Z,6.37
2018-06-04T13:53:31.487Z,6.30
2018-06-04T13:56:06.407Z,7.50
2018-06-04T13:58:41.439Z,6.37
2018-06-04T14:01:16.370Z,9.50
2018-06-04T14:03:51.655Z,7.57
2018-06-04T14:06:26.410Z,6.43
2018-06-04T14:09:01.615Z,8.33
2018-06-04T14:11:37.019Z,7.60
2018-06-04T14:14:12.263Z,8.90
2018-06-04T14:16:47.299Z,7.67
2018-06-04T14:19:28.769Z,7.17
2018-06-04T14:22:03.718Z,6.73
2018-06-04T14:24:39.803Z,7.60
2018-06-04T14:27:14.640Z,7.53
2018-06-04T14:29:49.376Z,7.47
2018-06-04T14:32:24.341Z,7.33
2018-06-04T14:34:59.224Z,7.10
2018-06-04T14:37:34.345Z,8.60
2018-06-04T14:40:10.473Z,7.67
2018-06-04T14:42:45.357Z,7.27
2018-06-04T14:45:20.745Z,7.47
2018-06-04T14:47:55.734Z,9.23
2018-06-04T14:50:30.517Z,9.47
2018-06-04T14:53:05.824Z,9.63
2018-06-04T14:55:40.932Z,8.93
2018-06-04T14:58:16.041Z,8.97
2018-06-04T15:00:51.207Z,9.50
2018-06-04T15:03:26.161Z,7.80
2018-06-04T15:06:00.909Z,8.90
2018-06-04T15:08:36.312Z,8.83
2018-06-04T15:11:11.825Z,9.03
2018-06-04T15:13:47.065Z,7.50
2018-06-04T15:16:21.976Z,7.20
2018-06-04T15:18:56.734Z,7.00
2018-06-04T15:21:31.681Z,6.80
2018-06-04T15:24:06.819Z,7.50
2018-06-04T15:26:42.091Z,6.90
2018-06-04T15:29:17.496Z,5.83
2018-06-04T15:31:52.221Z,6.40
2018-06-04T15:34:27.258Z,6.07
2018-06-04T15:37:02.982Z,5.67
2018-06-04T15:39:38.431Z,6.37
2018-06-04T15:42:14.389Z,7.03
2018-06-04T15:44:49.962Z,5.97
2018-06-04T15:47:25.269Z,6.07
2018-06-04T15:50:00.325Z,5.23
2018-06-04T15:52:36.682Z,5.33
2018-06-04T15:55:11.584Z,5.23
2018-06-04T15:57:46.633Z,5.10
2018-06-04T16:00:21.834Z,4.93
2018-06-04T16:02:56.688Z,4.57
2018-06-04T16:05:31.852Z,5.50
2018-06-04T16:08:06.817Z,5.63
2018-06-04T16:10:41.848Z,5.80
2018-06-04T16:13:17.173Z,4.90
2018-06-04T16:15:52.387Z,4.10
2018-06-04T16:18:28.147Z,4.87
2018-06-04T16:21:04.483Z,4.63
2018-06-04T16:23:40.429Z,4.43
2018-06-04T16:26:15.454Z,4.20
2018-06-04T16:28:50.645Z,4.90
2018-06-04T16:31:26.368Z,4.73
2018-06-04T16:34:01.467Z,6.20
2018-06-04T16:36:36.741Z,4.57
2018-06-04T16:39:11.791Z,5.03
2018-06-04T16:41:47.194Z,5.70
2018-06-04T16:44:22.190Z,4.60
2018-06-04T16:46:57.170Z,4.13
2018-06-04T16:49:32.353Z,4.47
2018-06-04T16:52:07.428Z,4.23
2018-06-04T16:54:44.165Z,3.77
2018-06-04T16:57:19.721Z,3.20
2018-06-04T16:59:54.888Z,4.07
2018-06-04T17:02:30.538Z,4.00
2018-06-04T17:05:06.010Z,3.33
2018-06-04T17:07:41.096Z,3.53
2018-06-04T17:10:16.595Z,3.77
2018-06-04T17:12:51.906Z,3.30
2018-06-04T17:15:27.804Z,4.17
2018-06-04T17:18:02.822Z,3.53
2018-06-04T17:20:37.914Z,4.23
2018-06-04T17:23:13.688Z,3.20
2018-06-04T17:25:48.963Z,3.30
2018-06-04T17:28:23.989Z,3.10
2018-06-04T17:30:59.832Z,3.43
2018-06-04T17:33:35.253Z,4.20
2018-06-04T17:36:10.556Z,3.83
2018-06-04T17:38:45.449Z,4.67
2018-06-04T17:41:20.765Z,4.40
2018-06-04T17:43:55.909Z,4.03
2018-06-04T17:46:31.092Z,3.53
2018-06-04T17:49:06.480Z,5.17
2018-06-04T17:51:41.509Z,5.07
2018-06-04T17:54:16.574Z,5.03
2018-06-04T17:56:51.758Z,4.63
2018-06-04T17:59:27.005Z,5.87
2018-06-04T18:02:02.162Z,6.20
2018-06-04T18:04:37.387Z,5.57
2018-06-04T18:07:12.245Z,5.83
2018-06-04T18:09:47.389Z,3.90
2018-06-04T18:12:23.174Z,6.03
2018-06-04T18:14:58.173Z,6.03
2018-06-04T18:17:33.110Z,5.93
2018-06-04T18:20:08.221Z,6.23
2018-06-04T18:22:43.221Z,4.53
2018-06-04T18:25:18.532Z,5.33
2018-06-04T18:27:53.558Z,5.60
2018-06-04T18:30:28.588Z,5.87
2018-06-04T18:33:03.708Z,6.03
2018-06-04T18:35:38.835Z,6.27
2018-06-04T18:38:13.879Z,6.47
2018-06-04T18:40:49.094Z,6.00
2018-06-04T18:43:24.946Z,5.47
2018-06-04T18:46:00.958Z,6.20
2018-06-04T18:48:36.031Z,6.87
2018-06-04T18:51:11.253Z,7.43
2018-06-04T18:53:47.625Z,7.33
2018-06-04T18:56:22.682Z,6.97
2018-06-04T18:58:57.784Z,7.67
2018-06-04T19:01:33.448Z,5.87
2018-06-04T19:04:08.524Z,7.43
2018-06-04T19:06:43.611Z,7.47
2018-06-04T19:09:18.953Z,6.60
2018-06-04T19:11:54.034Z,7.17
2018-06-04T19:14:29.833Z,5.27
2018-06-04T19:17:04.993Z,6.70
2018-06-04T19:19:40.805Z,7.13
2018-06-04T19:22:15.984Z,6.93
2018-06-04T19:24:50.989Z,8.50
2018-06-04T19:27:26.332Z,8.63
2018-06-04T19:30:01.574Z,7.70
2018-06-04T19:32:36.676Z,5.50
2018-06-04T19:35:12.050Z,5.87
2018-06-04T19:37:47.420Z,7.53
2018-06-04T19:40:23.758Z,7.07
2018-06-04T19:42:59.104Z,8.67
2018-06-04T19:45:34.717Z,8.93
2018-06-04T19:48:09.579Z,9.97
2018-06-04T19:50:44.615Z,9.50
2018-06-04T19:53:19.444Z,9.37
2018-06-04T19:55:55.159Z,10.23
2018-06-04T19:58:30.541Z,9.80
2018-06-04T20:01:05.517Z,11.10
2018-06-04T20:03:41.122Z,11.33
2018-06-04T20:06:23.224Z,10.60
2018-06-04T20:09:02.740Z,11.47
2018-06-04T20:11:38.333Z,11.70
2018-06-04T20:14:13.448Z,11.57
2018-06-04T20:16:49.484Z,10.97
2018-06-04T20:19:24.326Z,13.03
2018-06-04T20:21:59.339Z,12.47
2018-06-04T20:24:34.306Z,13.60
2018-06-04T20:27:09.545Z,12.30
2018-06-04T20:29:44.561Z,13.53
2018-06-04T20:32:19.712Z,12.73
2018-06-04T20:34:54.752Z,13.53
2018-06-04T20:37:29.927Z,15.80
2018-06-04T20:40:05.669Z,15.27
2018-06-04T20:42:41.191Z,14.70
2018-06-04T20:45:19.406Z,15.10
2018-06-04T20:47:57.510Z,14.00
2018-06-04T20:50:32.950Z,14.67
2018-06-04T20:53:08.571Z,14.73
2018-06-04T20:55:43.498Z,14.70
2018-06-04T20:58:20.122Z,14.30
2018-06-04T21:00:55.164Z,12.30
2018-06-04T21:03:30.280Z,13.43
2018-06-04T21:06:12.571Z,13.37
2018-06-04T21:08:47.959Z,12.57
2018-06-04T21:11:24.468Z,13.00
2018-06-04T21:13:59.157Z,10.43
2018-06-04T21:16:34.598Z,12.43
2018-06-04T21:19:10.217Z,12.07
2018-06-04T21:21:45.457Z,10.57
2018-06-04T21:24:20.185Z,10.20
2018-06-04T21:26:55.155Z,10.90
2018-06-04T21:29:30.377Z,10.10
2018-06-04T21:32:05.836Z,15.37
2018-06-04T21:34:41.489Z,16.57
2018-06-04T21:37:16.806Z,16.90
2018-06-04T21:39:52.405Z,16.87
2018-06-04T21:42:27.826Z,18.83
2018-06-04T21:45:03.486Z,20.80
2018-06-04T21:47:40.108Z,21.20
2018-06-04T21:50:15.968Z,20.53
2018-06-04T21:52:51.195Z,20.20
2018-06-04T21:55:27.467Z,22.40
2018-06-04T21:58:03.424Z,22.03
2018-06-04T22:00:38.967Z,23.50
2018-06-04T22:03:18.715Z,22.40
2018-06-04T22:05:54.052Z,24.00
2018-06-04T22:08:29.838Z,23.70
2018-06-04T22:11:05.246Z,23.50
2018-06-04T22:13:40.496Z,24.57
2018-06-04T22:16:15.591Z,23.33
2018-06-04T22:18:51.575Z,21.37
2018-06-04T22:21:26.885Z,22.83
2018-06-04T22:24:02.580Z,22.63
2018-06-04T22:26:37.930Z,22.63
2018-06-04T22:29:13.357Z,21.47
2018-06-04T22:31:49.838Z,21.20
2018-06-04T22:34:26.777Z,22.67
2018-06-04T22:37:02.336Z,20.97
2018-06-04T22:39:37.546Z,19.77
2018-06-04T22:42:13.939Z,20.00
2018-06-04T22:44:49.742Z,19.70
2018-06-04T22:47:25.118Z,18.47
2018-06-04T22:59:46.555Z,17.93
2018-06-04T23:02:21.654Z,18.90
2018-06-04T23:04:57.449Z,18.67
2018-06-04T23:07:32.836Z,18.87
2018-06-04T23:10:08.741Z,19.83
2018-06-04T23:12:44.477Z,19.53
2018-06-04T23:15:19.782Z,19.27
2018-06-04T23:17:54.974Z,19.77
2018-06-04T23:20:30.872Z,17.50
2018-06-04T23:23:06.210Z,17.03
2018-06-04T23:25:41.711Z,16.43
2018-06-04T23:28:17.197Z,17.50
2018-06-04T23:30:52.539Z,17.47
2018-06-04T23:33:28.015Z,16.80
2018-06-04T23:36:11.472Z,14.90
2018-06-04T23:38:49.577Z,15.40
2018-06-04T23:41:25.548Z,14.33
2018-06-04T23:44:01.120Z,12.77
2018-06-04T23:46:36.490Z,10.07
2018-06-04T23:49:13.243Z,11.73
2018-06-04T23:51:50.394Z,12.47
2018-06-04T23:54:29.648Z,12.83
2018-06-04T23:57:05.483Z,10.80
2018-06-04T23:59:41.097Z,10.30
